Time;durP1;ratioP1;P1;durP2;ratioP2;P2;SDS_P1;SDS_P2;PMS_P1;PMS_P2;Temp;Humidity;BMP_temperature;BMP_pressure;BME280_temperature;BME280_humidity;BME280_pressure;Samples;Min_cycle;Max_cycle;Signal;HPM_P1;HPM_P2
2023/06/21 00:00:15;;;;;;;12.77;10.73;;;;;;;20.95;100.00;101435.91;2069775;28;20213;-61
2023/06/21 00:01:16;;;;;;;10.83;9.73;;;;;;;20.96;100.00;101432.59;2063151;28;20426;-61
2023/06/21 00:02:17;;;;;;;11.50;10.30;;;;;;;20.92;100.00;101434.03;2064027;28;20413;-61
2023/06/21 00:03:17;;;;;;;12.10;10.93;;;;;;;20.92;100.00;101434.03;2064071;28;20174;-61
2023/06/21 00:04:18;;;;;;;12.07;10.80;;;;;;;20.93;100.00;101430.75;2063421;28;20477;-62
2023/06/21 00:05:18;;;;;;;12.50;11.20;;;;;;;20.88;100.00;101437.03;2064445;28;20321;-62
2023/06/21 00:06:19;;;;;;;11.80;10.77;;;;;;;20.87;100.00;101434.72;2064250;28;20194;-61
2023/06/21 00:07:23;;;;;;;12.50;11.40;;;;;;;20.86;100.00;101441.59;2064402;28;20178;-61
2023/06/21 00:08:23;;;;;;;14.07;11.37;;;;;;;20.84;100.00;101442.09;2064012;28;20189;-61
2023/06/21 00:09:24;;;;;;;14.47;11.77;;;;;;;20.81;100.00;101445.84;2063668;28;20433;-60
2023/06/21 00:10:27;;;;;;;14.77;11.50;;;;;;;20.84;100.00;101444.13;2058537;28;20207;-61
2023/06/21 00:11:27;;;;;;;13.47;11.37;;;;;;;20.83;100.00;101439.75;2065205;28;20190;-61
2023/06/21 00:12:28;;;;;;;12.40;11.17;;;;;;;20.83;100.00;101440.50;2065871;28;20417;-62
2023/06/21 00:13:28;;;;;;;12.47;11.17;;;;;;;19.93;100.00;101306.13;2065796;28;20690;-61
2023/06/21 00:14:28;;;;;;;12.17;10.90;;;;;;;20.76;100.00;101438.06;2065334;28;20194;-61
2023/06/21 00:15:29;;;;;;;13.10;11.37;;;;;;;20.76;100.00;101442.94;2060841;28;20191;-61
2023/06/21 00:16:30;;;;;;;14.23;11.50;;;;;;;20.64;100.00;101436.31;2061156;28;20678;-62
2023/06/21 00:17:31;;;;;;;13.13;11.83;;;;;;;20.61;100.00;101437.28;2065411;28;20181;-61
2023/06/21 00:18:31;;;;;;;14.50;12.97;;;;;;;20.65;100.00;101445.53;2065671;28;20425;-61
2023/06/21 00:19:32;;;;;;;15.50;14.00;;;;;;;20.61;100.00;101442.91;2065407;28;20245;-61
2023/06/21 00:20:32;;;;;;;15.77;12.93;;;;;;;20.67;100.00;101455.06;2066155;28;20192;-61
2023/06/21 00:21:32;;;;;;;13.67;12.17;;;;;;;20.64;100.00;101458.06;2065274;28;20190;-61
2023/06/21 00:22:35;;;;;;;14.40;13.00;;;;;;;20.29;100.00;101406.41;2065460;28;20557;-61
2023/06/21 00:23:36;;;;;;;16.47;14.90;;;;;;;20.14;100.00;101385.84;2065322;28;20329;-61
2023/06/21 00:24:36;;;;;;;15.43;13.90;;;;;;;20.64;100.00;101461.66;2069856;28;20503;-61
2023/06/21 00:25:37;;;;;;;15.00;13.70;;;;;;;20.59;100.00;101462.31;2070643;28;20190;-61
2023/06/21 00:26:37;;;;;;;15.07;13.67;;;;;;;20.59;100.00;101458.72;2064208;28;20210;-61
2023/06/21 00:27:39;;;;;;;15.10;13.67;;;;;;;20.58;100.00;101463.56;2058106;28;20190;-61
2023/06/21 00:28:39;;;;;;;15.37;13.87;;;;;;;20.61;100.00;101462.63;2065969;28;20181;-61
2023/06/21 00:29:40;;;;;;;15.03;13.70;;;;;;;20.31;100.00;101418.72;2058572;28;20434;-61
2023/06/21 00:30:40;;;;;;;15.97;14.20;;;;;;;20.64;100.00;101456.03;2063370;28;20281;-60
2023/06/21 00:31:41;;;;;;;16.20;14.33;;;;;;;20.10;100.00;101388.06;2064991;28;20205;-62
2023/06/21 00:32:41;;;;;;;15.33;13.93;;;;;;;20.63;100.00;101460.09;2065289;28;20297;-61
2023/06/21 00:33:41;;;;;;;14.87;13.47;;;;;;;20.64;100.00;101456.03;2065779;28;20198;-61
2023/06/21 00:34:42;;;;;;;15.43;13.40;;;;;;;20.66;100.00;101463.97;2064862;28;20543;-62
2023/06/21 00:35:42;;;;;;;15.67;13.20;;;;;;;20.67;100.00;101480.41;2065583;28;20198;-61
2023/06/21 00:36:43;;;;;;;14.17;12.87;;;;;;;20.68;100.00;101464.28;2066054;28;20174;-61
2023/06/21 00:37:44;;;;;;;14.00;12.67;;;;;;;20.68;100.00;101464.28;2058324;28;20213;-61
2023/06/21 00:38:45;;;;;;;13.90;12.50;;;;;;;20.69;100.00;101454.56;2068418;28;20282;-60
2023/06/21 00:39:46;;;;;;;15.57;12.73;;;;;;;20.01;100.00;101354.38;2069328;28;20443;-61
2023/06/21 00:40:47;;;;;;;14.50;13.07;;;;;;;20.71;100.00;101458.47;2065632;28;20444;-61
2023/06/21 00:41:48;;;;;;;14.70;12.50;;;;;;;20.70;100.00;101447.69;2065238;28;20663;-61
2023/06/21 00:42:48;;;;;;;21.17;12.67;;;;;;;19.93;100.00;101328.63;2065309;28;20842;-61
2023/06/21 00:43:49;;;;;;;14.27;11.83;;;;;;;20.73;100.00;101446.72;2065328;28;20413;-62
2023/06/21 00:44:49;;;;;;;13.60;12.30;;;;;;;20.72;100.00;101439.53;2065966;28;20723;-61
2023/06/21 00:45:50;;;;;;;14.50;11.90;;;;;;;20.72;100.00;101433.91;2065691;28;20647;-60
2023/06/21 00:46:50;;;;;;;16.10;12.30;;;;;;;20.71;100.00;101438.75;2065355;28;20190;-61
2023/06/21 00:47:51;;;;;;;14.13;12.00;;;;;;;20.73;100.00;101441.09;2065921;28;20271;-61
2023/06/21 00:48:52;;;;;;;13.90;12.33;;;;;;;20.60;100.00;101418.03;2065531;28;20758;-62
2023/06/21 00:49:52;;;;;;;13.80;12.40;;;;;;;20.73;100.00;101441.84;2065462;28;20613;-61
2023/06/21 00:50:53;;;;;;;14.47;11.83;;;;;;;20.70;100.00;101439.22;2065700;28;20622;-61
2023/06/21 00:52:00;;;;;;;14.40;12.47;;;;;;;19.85;100.00;101324.59;2064884;28;20548;-62
2023/06/21 00:53:00;;;;;;;16.47;12.03;;;;;;;20.66;100.00;101438.63;2065504;28;20166;-61
2023/06/21 00:54:01;;;;;;;16.33;11.97;;;;;;;20.66;100.00;101456.31;2065759;28;20429;-61
2023/06/21 00:55:01;;;;;;;16.47;11.90;;;;;;;20.68;100.00;101450.97;2065227;28;20725;-61
2023/06/21 00:56:02;;;;;;;14.50;12.10;;;;;;;20.67;100.00;101443.03;2065755;28;20186;-61
2023/06/21 00:57:06;;;;;;;16.73;11.80;;;;;;;20.69;100.00;101440.50;2065340;28;20640;-61
2023/06/21 00:58:08;;;;;;;14.87;11.50;;;;;;;20.36;100.00;101391.97;2065483;28;20698;-61
2023/06/21 00:59:09;;;;;;;14.13;12.73;;;;;;;20.60;100.00;101444.16;2065580;28;20514;-61
2023/06/21 01:00:18;;;;;;;19.00;11.50;;;;;;;20.56;100.00;101448.41;2063106;28;20417;-61
2023/06/21 01:01:20;;;;;;;13.80;11.47;;;;;;;20.57;100.00;101447.94;2058350;28;20596;-61
2023/06/21 01:02:20;;;;;;;13.60;10.90;;;;;;;20.57;100.00;101450.75;2065238;28;20492;-61
2023/06/21 01:03:21;;;;;;;14.83;11.10;;;;;;;20.58;100.00;101445.91;2065735;28;20428;-61
2023/06/21 01:04:27;;;;;;;16.10;11.00;;;;;;;20.13;100.00;101373.84;2065379;28;20282;-61
2023/06/21 01:05:33;;;;;;;13.90;10.50;;;;;;;20.56;100.00;101449.19;2065643;28;20817;-61
2023/06/21 01:07:03;;;;;;;15.17;10.50;;;;;;;20.54;100.00;101442.50;2065391;28;20441;-62
2023/06/21 01:08:15;;;;;;;14.63;10.77;;;;;;;20.53;100.00;101450.16;2057872;28;20403;-60
2023/06/21 01:09:37;;;;;;;13.80;10.40;;;;;;;20.51;100.00;101449.88;2057337;28;20429;-62
2023/06/21 01:10:51;;;;;;;14.10;10.30;;;;;;;20.52;100.00;101450.66;2065323;28;20468;-61
2023/06/21 01:12:00;;;;;;;12.13;10.77;;;;;;;20.51;100.00;101449.06;2065276;28;20930;-61
2023/06/21 01:13:06;;;;;;;17.27;11.63;;;;;;;20.49;100.00;101449.56;2065036;28;20421;-62
2023/06/21 01:14:22;;;;;;;13.60;11.40;;;;;;;20.51;100.00;101451.88;2065331;28;20887;-61
2023/06/21 01:15:26;;;;;;;15.70;11.97;;;;;;;20.51;100.00;101454.72;2065095;28;20468;-61
2023/06/21 01:16:38;;;;;;;17.47;12.27;;;;;;;20.49;100.00;101458.03;2065625;28;20421;-61
2023/06/21 01:17:40;;;;;;;13.77;12.10;;;;;;;19.89;100.00;101356.16;2065349;28;20813;-61
2023/06/21 01:18:45;;;;;;;15.00;12.37;;;;;;;20.48;100.00;101447.22;2065151;28;20171;-62
2023/06/21 01:19:51;;;;;;;16.13;12.20;;;;;;;20.49;100.00;101449.56;2064662;28;20555;-61
2023/06/21 01:20:57;;;;;;;14.40;12.67;;;;;;;20.49;100.00;101446.75;2065036;28;20467;-61
2023/06/21 01:22:00;;;;;;;16.87;12.13;;;;;;;20.48;100.00;101450.06;2065215;28;20433;-61
2023/06/21 01:23:31;;;;;;;16.37;12.60;;;;;;;20.46;100.00;101450.53;2065304;28;20836;-61
2023/06/21 01:25:07;;;;;;;15.60;11.63;;;;;;;20.45;100.00;101445.38;2062558;28;20429;-62
2023/06/21 01:26:35;;;;;;;18.30;12.37;;;;;;;20.44;100.00;101455.88;2048212;29;20931;-61
2023/06/21 01:27:48;;;;;;;14.23;11.50;;;;;;;19.94;100.00;101383.63;2044336;29;20498;-61
2023/06/21 01:29:07;;;;;;;13.73;12.23;;;;;;;20.42;100.00;101444.28;2056732;28;20481;-61
2023/06/21 01:30:10;;;;;;;16.43;12.40;;;;;;;20.42;100.00;101466.06;2065307;28;20417;-61
2023/06/21 01:31:16;;;;;;;17.00;11.83;;;;;;;20.38;100.00;101440.13;2064843;28;20508;-61
2023/06/21 01:32:17;;;;;;;15.50;11.70;;;;;;;20.40;100.00;101440.41;2065376;28;20430;-62
2023/06/21 01:33:18;;;;;;;15.03;13.23;;;;;;;19.83;100.00;101346.81;2065319;28;20417;-61
2023/06/21 01:34:20;;;;;;;19.47;12.47;;;;;;;20.38;100.00;101437.28;2065381;28;20946;-61
2023/06/21 01:35:21;;;;;;;18.90;12.57;;;;;;;20.38;100.00;101428.84;2071197;28;20476;-61
2023/06/21 01:36:22;;;;;;;16.00;12.80;;;;;;;20.38;100.00;101426.81;2068062;28;20428;-61
2023/06/21 01:37:23;;;;;;;15.40;12.63;;;;;;;20.39;100.00;101434.00;2064627;28;20437;-61
2023/06/21 01:38:24;;;;;;;16.60;12.33;;;;;;;20.39;100.00;101425.56;2065430;28;20186;-61
2023/06/21 01:39:28;;;;;;;16.83;13.17;;;;;;;20.38;100.00;101428.84;2065285;28;20449;-61
2023/06/21 01:40:29;;;;;;;16.60;12.63;;;;;;;20.29;100.00;101415.63;2065152;28;20193;-61
2023/06/21 01:41:29;;;;;;;15.60;12.30;;;;;;;20.04;100.00;101393.56;2064900;28;20421;-61
2023/06/21 01:42:30;;;;;;;14.07;12.53;;;;;;;20.37;100.00;101432.94;2065179;28;20696;-62
2023/06/21 01:43:31;;;;;;;17.57;12.50;;;;;;;20.40;100.00;101437.59;2064839;28;20237;-61
2023/06/21 01:44:31;;;;;;;15.07;13.03;;;;;;;19.72;100.00;101331.72;2065062;28;20217;-61
2023/06/21 01:45:32;;;;;;;14.60;12.17;;;;;;;20.40;100.00;101435.56;2064316;28;20195;-61
2023/06/21 01:46:33;;;;;;;14.63;12.20;;;;;;;20.41;100.00;101433.53;2060901;28;20265;-61
2023/06/21 01:47:34;;;;;;;18.73;12.77;;;;;;;20.41;100.00;101437.13;2059169;28;20183;-61
2023/06/21 01:48:36;;;;;;;14.73;12.60;;;;;;;20.30;100.00;101425.63;2065052;28;20225;-61
2023/06/21 01:49:37;;;;;;;15.70;12.77;;;;;;;20.32;100.00;101436.41;2064985;28;21034;-61
2023/06/21 01:50:40;;;;;;;13.97;12.57;;;;;;;20.28;100.00;101433.00;2065404;28;20793;-61
2023/06/21 01:51:42;;;;;;;13.50;12.23;;;;;;;20.33;100.00;101435.16;2064638;28;20197;-62
2023/06/21 01:52:44;;;;;;;14.97;11.80;;;;;;;20.27;100.00;101437.81;2064777;28;20747;-61
2023/06/21 01:53:45;;;;;;;12.37;11.07;;;;;;;19.62;100.00;101341.47;2065023;28;20821;-61
2023/06/21 01:54:46;;;;;;;16.87;11.03;;;;;;;20.23;100.00;101436.47;2060212;28;20446;-61
2023/06/21 01:55:49;;;;;;;12.57;11.03;;;;;;;20.20;100.00;101443.03;2057112;28;20277;-61
2023/06/21 01:56:58;;;;;;;13.33;11.50;;;;;;;20.14;100.00;101442.16;2060156;28;20791;-61
2023/06/21 01:57:59;;;;;;;13.83;12.10;;;;;;;20.14;100.00;101437.31;2065082;28;20437;-61
2023/06/21 01:59:01;;;;;;;12.87;11.40;;;;;;;20.11;100.00;101443.88;2064861;28;20937;-61
2023/06/21 02:00:17;;;;;;;13.53;12.13;;;;;;;19.61;100.00;101363.22;2065105;28;20185;-61
2023/06/21 02:01:21;;;;;;;15.17;12.50;;;;;;;20.09;100.00;101446.41;2064539;28;20464;-61
2023/06/21 02:02:23;;;;;;;12.97;11.67;;;;;;;20.03;100.00;101450.31;2066179;28;20422;-62
2023/06/21 02:03:25;;;;;;;16.70;12.67;;;;;;;20.03;100.00;101444.69;2072422;28;20813;-61
2023/06/21 02:04:28;;;;;;;13.50;12.20;;;;;;;19.23;100.00;101331.34;2065264;28;20923;-61
2023/06/21 02:05:31;;;;;;;16.47;12.13;;;;;;;19.29;100.00;101337.91;2072736;28;20444;-62
2023/06/21 02:06:33;;;;;;;14.13;12.67;;;;;;;20.01;100.00;101462.03;2066152;28;20943;-62
2023/06/21 02:07:34;;;;;;;13.60;12.30;;;;;;;20.04;100.00;101454.69;2064977;28;20891;-62
2023/06/21 02:08:35;;;;;;;14.37;12.30;;;;;;;19.89;100.00;101434.13;2070087;28;20861;-61
2023/06/21 02:09:37;;;;;;;14.87;13.40;;;;;;;20.06;100.00;101463.44;2072736;28;20907;-61
2023/06/21 02:10:38;;;;;;;19.17;13.30;;;;;;;20.05;100.00;101451.38;2072874;28;20436;-61
2023/06/21 02:11:38;;;;;;;16.33;12.87;;;;;;;20.06;100.00;101464.19;2069096;28;20465;-61
2023/06/21 02:12:41;;;;;;;15.17;12.37;;;;;;;19.97;100.00;101452.22;2057160;28;20194;-62
2023/06/21 02:13:42;;;;;;;14.87;13.10;;;;;;;19.97;100.00;101453.00;2065300;28;20178;-61
2023/06/21 02:14:42;;;;;;;14.37;12.53;;;;;;;19.93;100.00;101443.97;2064279;28;20441;-61
2023/06/21 02:15:43;;;;;;;14.50;13.00;;;;;;;20.02;100.00;101454.38;2065030;28;20186;-62
2023/06/21 02:16:43;;;;;;;16.90;12.60;;;;;;;20.02;100.00;101451.56;2064394;28;20248;-62
2023/06/21 02:17:48;;;;;;;15.10;12.63;;;;;;;20.03;100.00;101482.06;2065049;28;20241;-61
2023/06/21 02:18:49;;;;;;;18.80;12.67;;;;;;;20.05;100.00;101456.25;2064886;28;20198;-62
2023/06/21 02:19:49;;;;;;;13.83;12.20;;;;;;;19.62;100.00;101404.13;2064835;28;20495;-61
2023/06/21 02:20:52;;;;;;;18.37;13.00;;;;;;;20.03;100.00;101462.34;2064837;28;20178;-61
2023/06/21 02:21:52;;;;;;;16.40;12.67;;;;;;;20.03;100.00;101467.97;2064277;28;20171;-61
2023/06/21 02:22:52;;;;;;;16.07;12.97;;;;;;;20.05;100.00;101467.50;2064749;28;20416;-61
2023/06/21 02:23:53;;;;;;;16.00;12.43;;;;;;;20.06;100.00;101469.81;2064874;28;20576;-61
2023/06/21 02:24:53;;;;;;;15.67;12.20;;;;;;;20.03;100.00;101467.19;2071019;28;20205;-61
2023/06/21 02:25:54;;;;;;;16.07;11.70;;;;;;;20.04;100.00;101472.34;2067678;28;20208;-61
2023/06/21 02:26:54;;;;;;;16.27;11.57;;;;;;;20.06;100.00;101478.28;2064737;28;20234;-61
2023/06/21 02:27:55;;;;;;;16.20;11.17;;;;;;;20.08;100.00;101470.19;2064770;28;20195;-61
2023/06/21 02:28:55;;;;;;;14.23;11.73;;;;;;;19.97;100.00;101450.19;2064231;28;20174;-61
2023/06/21 02:29:56;;;;;;;15.27;11.03;;;;;;;20.09;100.00;101465.31;2064823;28;20645;-62
2023/06/21 02:30:56;;;;;;;16.23;11.30;;;;;;;20.10;100.00;101464.03;2064884;28;20236;-61
2023/06/21 02:31:56;;;;;;;17.33;11.30;;;;;;;19.87;100.00;101428.22;2063899;28;20183;-62
2023/06/21 02:32:57;;;;;;;15.50;11.50;;;;;;;20.09;100.00;101470.94;2064044;28;20252;-61
2023/06/21 02:33:57;;;;;;;16.23;11.20;;;;;;;20.08;100.00;101466.56;2064764;28;20182;-61
2023/06/21 02:34:59;;;;;;;12.93;11.10;;;;;;;19.07;100.00;101310.00;2064347;28;20214;-62
2023/06/21 02:35:59;;;;;;;13.87;11.27;;;;;;;20.08;100.00;101463.75;2064936;28;20195;-61
2023/06/21 02:36:59;;;;;;;15.30;11.03;;;;;;;20.09;100.00;101474.53;2064290;28;20508;-61
2023/06/21 02:38:01;;;;;;;14.20;11.67;;;;;;;20.10;100.00;101469.69;2064835;28;20565;-62
2023/06/21 02:39:03;;;;;;;13.80;11.77;;;;;;;20.04;100.00;101455.47;2072417;28;20222;-61
2023/06/21 02:40:09;;;;;;;14.43;11.93;;;;;;;20.10;100.00;101469.69;2072151;28;20415;-61
2023/06/21 02:41:10;;;;;;;15.53;11.80;;;;;;;20.10;100.00;101469.69;2064277;28;20512;-61
2023/06/21 02:42:10;;;;;;;23.73;12.40;;;;;;;20.11;100.00;101462.81;2064900;28;20934;-61
2023/06/21 02:43:11;;;;;;;20.17;11.80;;;;;;;20.10;100.00;101461.22;2064362;28;20201;-62
2023/06/21 02:44:11;;;;;;;18.70;11.80;;;;;;;20.09;100.00;101466.09;2064490;28;20279;-61
2023/06/21 02:45:12;;;;;;;19.70;11.90;;;;;;;20.08;100.00;101464.56;2064638;28;20560;-62
2023/06/21 02:46:12;;;;;;;19.50;11.83;;;;;;;19.27;100.00;101331.97;2064800;28;20178;-61
2023/06/21 02:47:12;;;;;;;21.47;12.07;;;;;;;19.50;100.00;101370.59;2065175;28;20221;-61
2023/06/21 02:48:13;;;;;;;21.60;12.90;;;;;;;20.10;100.00;101467.66;2073283;28;20189;-61
2023/06/21 02:49:13;;;;;;;23.73;13.03;;;;;;;19.81;100.00;101425.25;2064728;28;20197;-60
2023/06/21 02:50:16;;;;;;;16.03;12.20;;;;;;;20.12;100.00;101467.94;2064479;28;20226;-61
2023/06/21 02:51:16;;;;;;;22.67;12.63;;;;;;;20.14;100.00;101467.47;2064575;28;20206;-61
2023/06/21 02:52:17;;;;;;;17.93;11.73;;;;;;;20.14;100.00;101470.28;2063881;28;20449;-61
2023/06/21 02:53:17;;;;;;;16.47;12.03;;;;;;;20.13;100.00;101469.53;2064173;28;20194;-61
2023/06/21 02:54:18;;;;;;;19.33;12.37;;;;;;;20.14;100.00;101470.28;2064221;28;20217;-61
2023/06/21 02:55:19;;;;;;;15.97;11.40;;;;;;;20.06;100.00;101452.19;2065727;28;20691;-61
2023/06/21 02:56:19;;;;;;;19.07;12.00;;;;;;;20.12;100.00;101464.38;2073210;28;20910;-62
2023/06/21 02:57:20;;;;;;;17.80;12.40;;;;;;;20.13;100.00;101465.91;2057038;28;20441;-62
2023/06/21 02:58:21;;;;;;;11.63;10.40;;;;;;;19.84;100.00;101427.13;2063377;28;20225;-61
2023/06/21 02:59:22;;;;;;;16.03;12.10;;;;;;;20.17;100.00;101472.16;2063948;28;20448;-61
2023/06/21 03:00:23;;;;;;;17.60;11.73;;;;;;;20.18;100.00;101468.06;2064801;28;20457;-61
2023/06/21 03:01:24;;;;;;;18.40;10.90;;;;;;;20.13;100.00;101465.91;2063994;28;20285;-61
2023/06/21 03:02:33;;;;;;;17.27;11.40;;;;;;;20.12;100.00;101472.81;2064381;28;22810;-61
2023/06/21 03:03:33;;;;;;;19.07;11.17;;;;;;;20.06;100.00;101467.00;2064188;28;20253;-61
2023/06/21 03:04:34;;;;;;;16.97;11.53;;;;;;;20.04;100.00;101471.56;2064552;28;20429;-61
2023/06/21 03:05:34;;;;;;;12.37;10.37;;;;;;;20.07;100.00;101473.44;2064280;28;20257;-61
2023/06/21 03:06:34;;;;;;;15.40;11.13;;;;;;;20.09;100.00;101466.09;2065015;28;20670;-62
2023/06/21 03:07:35;;;;;;;20.03;11.83;;;;;;;20.10;100.00;101476.09;2057023;28;20249;-61
2023/06/21 03:08:38;;;;;;;21.67;11.33;;;;;;;20.11;100.00;101472.03;2062283;28;20209;-61
2023/06/21 03:09:38;;;;;;;18.63;11.43;;;;;;;20.15;100.00;101472.63;2069727;28;20200;-61
2023/06/21 03:10:39;;;;;;;13.67;10.93;;;;;;;20.19;100.00;101466.81;2068396;28;20532;-61
2023/06/21 03:11:39;;;;;;;14.70;10.77;;;;;;;20.17;100.00;101470.09;2061314;28;20597;-61
2023/06/21 03:12:41;;;;;;;12.30;11.10;;;;;;;19.33;100.00;101349.72;2058073;28;20183;-61
2023/06/21 03:13:42;;;;;;;12.73;11.20;;;;;;;20.06;100.00;101471.88;2065366;28;20178;-61
2023/06/21 03:14:42;;;;;;;14.27;11.47;;;;;;;20.08;100.00;101469.38;2072738;28;20455;-61
2023/06/21 03:15:42;;;;;;;15.57;11.67;;;;;;;20.10;100.00;101476.09;2064657;28;20314;-61
2023/06/21 03:16:44;;;;;;;14.30;11.63;;;;;;;20.08;100.00;101470.19;2064446;28;20194;-61
2023/06/21 03:17:44;;;;;;;18.37;11.67;;;;;;;20.16;100.00;101484.69;2064339;28;20189;-61
2023/06/21 03:18:45;;;;;;;18.73;11.27;;;;;;;20.18;100.00;101480.13;2064112;28;20448;-61
2023/06/21 03:19:45;;;;;;;20.00;11.53;;;;;;;20.21;100.00;101484.03;2064240;28;20284;-61
2023/06/21 03:20:49;;;;;;;17.67;11.53;;;;;;;20.19;100.00;101480.88;2066468;28;20177;-61
2023/06/21 03:21:50;;;;;;;22.10;11.40;;;;;;;20.13;100.00;101474.38;2070616;28;20172;-61
2023/06/21 03:22:51;;;;;;;17.10;11.70;;;;;;;20.16;100.00;101474.19;2063798;28;21001;-61
2023/06/21 03:23:51;;;;;;;16.43;11.33;;;;;;;20.21;100.00;101481.97;2064081;28;20678;-61
2023/06/21 03:24:52;;;;;;;14.90;11.30;;;;;;;20.21;100.00;101481.22;2063438;28;20194;-61
2023/06/21 03:25:52;;;;;;;13.80;11.40;;;;;;;20.20;100.00;101485.25;2064582;28;20189;-61
2023/06/21 03:26:53;;;;;;;16.60;10.37;;;;;;;20.21;100.00;101487.59;2071904;28;20229;-61
2023/06/21 03:27:53;;;;;;;14.37;10.50;;;;;;;20.25;100.00;101484.59;2075932;28;20191;-61
2023/06/21 03:28:54;;;;;;;16.03;11.37;;;;;;;20.23;100.00;101487.91;2068628;28;20682;-61
2023/06/21 03:29:54;;;;;;;22.77;10.87;;;;;;;20.27;100.00;101488.50;2064451;28;20285;-62
2023/06/21 03:30:57;;;;;;;18.73;10.70;;;;;;;20.28;100.00;101494.91;2064076;28;20644;-61
2023/06/21 03:31:57;;;;;;;16.10;11.20;;;;;;;20.31;100.00;101494.72;2064580;28;20644;-61
2023/06/21 03:32:58;;;;;;;16.73;10.90;;;;;;;20.34;100.00;101499.41;2063828;28;20880;-61
2023/06/21 03:33:58;;;;;;;12.13;10.70;;;;;;;20.35;100.00;101494.53;2064691;28;20293;-61
2023/06/21 03:34:59;;;;;;;17.10;10.63;;;;;;;20.33;100.00;101495.06;2064130;28;20348;-61
2023/06/21 03:35:59;;;;;;;18.50;11.03;;;;;;;19.67;100.00;101408.31;2064554;28;20194;-62
2023/06/21 03:37:00;;;;;;;27.20;11.93;;;;;;;20.26;100.00;101492.56;2064159;28;20292;-61
2023/06/21 03:38:00;;;;;;;17.07;11.17;;;;;;;20.27;100.00;101484.91;2064231;28;20201;-61
2023/06/21 03:39:01;;;;;;;25.87;12.13;;;;;;;20.35;100.00;101500.19;2064401;28;20571;-62
2023/06/21 03:40:03;;;;;;;22.50;11.77;;;;;;;20.29;100.00;101505.69;2064759;28;20173;-61
2023/06/21 03:41:03;;;;;;;19.77;11.57;;;;;;;20.25;100.00;101505.09;2063218;28;20200;-61
2023/06/21 03:42:04;;;;;;;23.40;11.73;;;;;;;20.21;100.00;101498.84;2064527;28;20451;-62
2023/06/21 03:43:05;;;;;;;21.80;11.63;;;;;;;20.24;100.00;101509.16;2063707;28;20193;-61
2023/06/21 03:44:05;;;;;;;20.40;11.63;;;;;;;20.32;100.00;101515.22;2063942;28;20272;-61
2023/06/21 03:45:07;;;;;;;15.43;11.63;;;;;;;20.30;100.00;101510.06;2064179;28;20277;-61
2023/06/21 03:46:07;;;;;;;16.97;11.20;;;;;;;20.30;100.00;101524.13;2063963;28;20176;-62
2023/06/21 03:47:10;;;;;;;22.50;11.03;;;;;;;20.34;100.00;101513.50;2063714;28;20422;-61
2023/06/21 03:48:10;;;;;;;21.20;11.03;;;;;;;20.39;100.00;101520.50;2064272;28;20175;-61
2023/06/21 03:49:11;;;;;;;17.13;11.23;;;;;;;20.30;100.00;101501.63;2056525;28;20427;-61
2023/06/21 03:50:12;;;;;;;17.07;11.10;;;;;;;20.44;100.00;101519.84;2056563;28;20633;-61
2023/06/21 03:51:12;;;;;;;17.20;11.90;;;;;;;20.49;100.00;101519.97;2061634;28;20213;-61
2023/06/21 03:52:12;;;;;;;20.70;11.07;;;;;;;20.49;100.00;101519.97;2069647;28;20963;-61
2023/06/21 03:53:13;;;;;;;16.10;10.70;;;;;;;20.51;100.00;101519.47;2067845;28;20221;-61
2023/06/21 03:54:13;;;;;;;18.27;11.83;;;;;;;20.50;100.00;101509.47;2064526;28;20186;-61
2023/06/21 03:55:14;;;;;;;20.47;11.00;;;;;;;20.55;100.00;101517.25;2063742;28;20289;-61
2023/06/21 03:56:14;;;;;;;16.00;11.23;;;;;;;20.56;100.00;101519.59;2064356;28;20214;-61
2023/06/21 03:57:15;;;;;;;15.80;11.00;;;;;;;20.61;100.00;101518.16;2064526;28;20188;-61
2023/06/21 03:58:15;;;;;;;16.20;10.83;;;;;;;20.62;100.00;101522.53;2063953;28;20201;-61
2023/06/21 03:59:15;;;;;;;16.80;10.63;;;;;;;20.61;100.00;101526.59;2064092;28;20476;-61
2023/06/21 04:00:17;;;;;;;12.27;10.13;;;;;;;20.71;100.00;101514.00;2064462;28;20228;-62
2023/06/21 04:01:18;;;;;;;14.10;10.83;;;;;;;20.73;100.00;101512.28;2063259;28;20476;-61
2023/06/21 04:02:21;;;;;;;12.87;10.53;;;;;;;20.77;100.00;101510.06;2061818;28;20600;-62
2023/06/21 04:03:21;;;;;;;13.17;10.47;;;;;;;20.77;100.00;101512.13;2061600;28;20429;-62
2023/06/21 04:04:24;;;;;;;13.53;10.70;;;;;;;20.84;100.00;101511.72;2062763;28;20481;-62
2023/06/21 04:05:24;;;;;;;12.57;10.23;;;;;;;20.78;100.00;101499.56;2062295;28;20259;-62
2023/06/21 04:06:25;;;;;;;12.37;9.90;;;;;;;20.88;100.00;101513.09;2062249;28;20468;-61
2023/06/21 04:07:26;;;;;;;14.00;10.77;;;;;;;20.93;100.00;101514.50;2063112;28;20289;-62
2023/06/21 04:08:26;;;;;;;16.47;10.97;;;;;;;19.85;100.00;101337.91;2063261;28;20966;-61
2023/06/21 04:09:26;;;;;;;13.23;10.30;;;;;;;20.52;100.00;101437.34;2063694;28;20281;-62
2023/06/21 04:10:27;;;;;;;15.47;10.87;;;;;;;21.05;100.00;101519.09;2062464;28;20267;-61
2023/06/21 04:11:27;;;;;;;14.40;10.80;;;;;;;21.07;100.00;101519.38;2061892;28;20206;-62
2023/06/21 04:12:28;;;;;;;13.00;10.87;;;;;;;21.09;100.00;101512.00;2063027;28;20273;-62
2023/06/21 04:13:28;;;;;;;15.00;10.30;;;;;;;21.12;100.00;101516.69;2063150;28;20179;-61
2023/06/21 04:14:29;;;;;;;13.67;10.77;;;;;;;20.59;100.00;101416.47;2063841;28;20554;-61
2023/06/21 04:15:30;;;;;;;13.00;10.30;;;;;;;20.94;100.00;101468.94;2063197;28;20207;-61
2023/06/21 04:16:30;;;;;;;15.00;10.60;;;;;;;21.23;100.00;101504.84;2063442;28;20692;-61
2023/06/21 04:17:31;;;;;;;15.60;10.10;;;;;;;21.29;100.00;101520.59;2070732;28;20607;-61
2023/06/21 04:18:32;;;;;;;13.40;10.93;;;;;;;20.34;100.00;101367.09;2070741;28;20186;-61
2023/06/21 04:19:32;;;;;;;16.27;10.60;;;;;;;21.38;100.00;101517.69;2063050;28;20554;-61
2023/06/21 04:20:33;;;;;;;14.50;10.30;;;;;;;21.40;100.00;101514.38;2063340;28;20527;-61
2023/06/21 04:21:33;;;;;;;17.93;11.20;;;;;;;21.45;100.00;101522.16;2063020;28;20201;-62
2023/06/21 04:22:33;;;;;;;17.93;10.97;;;;;;;21.42;100.00;101518.28;2063623;28;20178;-62
2023/06/21 04:23:34;;;;;;;16.83;10.80;;;;;;;21.48;100.00;101521.16;2062138;28;20178;-61
2023/06/21 04:24:36;;;;;;;16.07;10.40;;;;;;;21.49;100.00;101526.34;2062340;28;20265;-61
2023/06/21 04:25:37;;;;;;;13.57;10.80;;;;;;;21.04;100.00;101450.66;2063431;28;20186;-61
2023/06/21 04:26:37;;;;;;;11.27;10.07;;;;;;;21.56;100.00;101523.13;2063630;28;20440;-61
2023/06/21 04:27:45;;;;;;;11.77;10.60;;;;;;;21.02;100.00;101435.50;2062700;28;20201;-61
2023/06/21 04:28:48;;;;;;;17.87;10.67;;;;;;;21.64;100.00;101529.94;2062161;28;20222;-61
2023/06/21 04:29:48;;;;;;;14.50;11.03;;;;;;;21.07;100.00;101429.19;2063033;28;20978;-61
2023/06/21 04:30:48;;;;;;;18.13;11.13;;;;;;;21.42;100.00;101484.44;2061948;28;20876;-61
2023/06/21 04:31:51;;;;;;;13.50;10.57;;;;;;;21.75;100.00;101530.16;2063195;28;20368;-62
2023/06/21 04:32:52;;;;;;;13.00;10.50;;;;;;;21.76;100.00;101534.53;2063552;28;20185;-61
2023/06/21 04:33:53;;;;;;;11.13;9.93;;;;;;;21.73;100.00;101529.06;2063038;28;20476;-61
2023/06/21 04:34:54;;;;;;;11.17;10.10;;;;;;;21.81;100.00;101530.25;2062857;28;20190;-61
2023/06/21 04:35:54;;;;;;;10.83;9.60;;;;;;;21.85;100.00;101531.59;2063115;28;20452;-61
2023/06/21 04:36:55;;;;;;;11.00;10.00;;;;;;;21.82;100.00;101523.34;2062128;28;20248;-62
2023/06/21 04:37:55;;;;;;;10.83;9.70;;;;;;;21.34;100.00;101451.47;2062054;28;20203;-61
2023/06/21 04:38:55;;;;;;;10.87;9.87;;;;;;;21.27;100.00;101432.13;2063200;28;20297;-61